Sumach, Washington
Current Conditions -  °F | °C
As of 7:53 AM on Thursday 18 Dec 2014 (Local Time) from KYKM Reporting Station
Haze Haze  
Wind Chill: 39°   Ceiling: 1300
Heat Index: 39°   Visibility: 5mi
Dew Point: 36°   Wind: 0mph
Humidity: 89%   Direction: NA
Pressure: 30.01"   Gusts: NA
Location:  46.562°N, 120.899°W
Report Text: KYKM 181553Z 00000KT 5SM BR OVC013 04/02 A3001 RMK AO2 SLP170 T00390022
Loading
Personal Weather Stations






























Interactive Weather Map New forecast layout! Learn more

10-Day Weather Forecast

Advertisements
Track Severe Weather on mobile